Time;durP1;ratioP1;P1;durP2;ratioP2;P2;SDS_P1;SDS_P2;PMS_P1;PMS_P2;Temp;Humidity;BMP_temperature;BMP_pressure;BME280_temperature;BME280_humidity;BME280_pressure;Samples;Min_cycle;Max_cycle;Signal;HPM_P1;HPM_P2
2022/02/20 00:04:49;;;;;;;30.63;14.63;;;;;;;;;;10411921;28;20386;-78
2022/02/20 00:09:49;;;;;;;43.73;15.23;;;;;;;;;;10452337;28;20481;-76
2022/02/20 00:14:49;;;;;;;37.22;14.48;;;;;;;;;;10451498;28;20515;-71
2022/02/20 00:19:50;;;;;;;36.00;16.58;;;;;;;;;;10451172;28;20029;-72
2022/02/20 00:24:50;;;;;;;38.13;15.07;;;;;;;;;;10451396;28;20041;-75
2022/02/20 00:29:50;;;;;;;34.28;16.15;;;;;;;;;;10436390;28;20632;-71
2022/02/20 00:34:50;;;;;;;31.65;16.52;;;;;;;;;;10409585;28;20060;-72
2022/02/20 00:39:51;;;;;;;35.77;15.50;;;;;;;;;;10409440;28;20037;-73
2022/02/20 00:44:51;;;;;;;33.50;15.47;;;;;;;;;;10409664;28;20125;-72
2022/02/20 00:49:51;;;;;;;40.40;18.05;;;;;;;;;;10409651;28;20025;-73
2022/02/20 00:54:52;;;;;;;36.05;16.63;;;;;;;;;;10409503;28;20033;-71
2022/02/20 00:59:52;;;;;;;35.20;15.13;;;;;;;;;;10409169;28;20082;-76
2022/02/20 01:04:53;;;;;;;46.60;16.38;;;;;;;;;;10409007;28;20032;-72
2022/02/20 01:09:53;;;;;;;39.37;15.60;;;;;;;;;;10409038;28;20021;-72
2022/02/20 01:14:53;;;;;;;44.63;15.97;;;;;;;;;;10408855;28;20112;-72
2022/02/20 01:19:54;;;;;;;32.22;15.68;;;;;;;;;;10408485;28;20522;-73
2022/02/20 01:24:55;;;;;;;30.33;13.60;;;;;;;;;;10408091;28;20159;-73
2022/02/20 01:29:55;;;;;;;41.85;15.52;;;;;;;;;;10408178;28;20114;-74
2022/02/20 01:34:56;;;;;;;30.65;14.20;;;;;;;;;;10408554;28;20532;-72
2022/02/20 01:39:56;;;;;;;34.97;16.00;;;;;;;;;;10409455;28;20497;-74
2022/02/20 01:44:56;;;;;;;26.35;12.60;;;;;;;;;;10407944;28;20029;-73
2022/02/20 01:49:57;;;;;;;16.95;9.07;;;;;;;;;;10390593;28;20025;-78
2022/02/20 01:54:57;;;;;;;16.83;9.70;;;;;;;;;;10407981;28;20026;-73
2022/02/20 01:59:58;;;;;;;17.52;8.38;;;;;;;;;;10408669;28;20272;-72
2022/02/20 02:04:58;;;;;;;16.98;7.80;;;;;;;;;;10406964;28;20025;-71
2022/02/20 02:09:59;;;;;;;15.95;7.13;;;;;;;;;;10407314;28;20025;-77
2022/02/20 02:15:02;;;;;;;16.95;9.38;;;;;;;;;;10408009;28;20104;-72
2022/02/20 02:20:03;;;;;;;13.05;6.57;;;;;;;;;;10406023;28;20024;-73
2022/02/20 02:25:05;;;;;;;14.85;8.48;;;;;;;;;;10405891;28;20025;-73
2022/02/20 02:30:07;;;;;;;12.38;7.20;;;;;;;;;;10406121;28;20503;-73
2022/02/20 02:35:07;;;;;;;16.13;7.45;;;;;;;;;;10405393;28;20041;-72
2022/02/20 02:40:08;;;;;;;17.10;7.40;;;;;;;;;;10405493;28;20022;-72
2022/02/20 02:45:08;;;;;;;12.13;6.28;;;;;;;;;;10406324;28;20451;-72
2022/02/20 02:50:09;;;;;;;11.90;6.88;;;;;;;;;;10405465;28;20021;-71
2022/02/20 02:55:09;;;;;;;17.80;8.25;;;;;;;;;;10405771;28;20049;-72
2022/02/20 03:00:09;;;;;;;17.80;8.23;;;;;;;;;;10422251;28;20117;-73
2022/02/20 03:05:10;;;;;;;15.57;9.07;;;;;;;;;;10405963;28;20026;-77
2022/02/20 03:10:10;;;;;;;15.40;9.10;;;;;;;;;;10405135;28;20037;-72
2022/02/20 03:15:10;;;;;;;19.00;10.63;;;;;;;;;;10405078;28;20033;-72
2022/02/20 03:20:11;;;;;;;26.05;12.07;;;;;;;;;;10420963;28;20537;-73
2022/02/20 03:25:11;;;;;;;21.88;11.48;;;;;;;;;;10404230;28;20477;-74
2022/02/20 03:30:12;;;;;;;21.17;12.40;;;;;;;;;;10404266;28;20469;-74
2022/02/20 03:35:13;;;;;;;23.05;12.40;;;;;;;;;;10420557;28;20037;-72
2022/02/20 03:40:13;;;;;;;23.88;11.63;;;;;;;;;;10420429;28;20053;-73
2022/02/20 03:45:13;;;;;;;26.02;11.27;;;;;;;;;;10403935;28;20091;-72
2022/02/20 03:50:14;;;;;;;28.17;11.50;;;;;;;;;;10403753;28;20013;-77
2022/02/20 03:55:14;;;;;;;20.70;9.20;;;;;;;;;;10405283;28;20272;-76
2022/02/20 04:00:22;;;;;;;26.40;10.00;;;;;;;;;;10409614;28;20287;-75
2022/02/20 04:05:22;;;;;;;21.47;9.63;;;;;;;;;;10420686;28;20029;-71
2022/02/20 04:10:23;;;;;;;19.67;9.05;;;;;;;;;;10403528;28;20014;-72
2022/02/20 04:15:23;;;;;;;30.67;11.43;;;;;;;;;;10407128;28;20036;-72
2022/02/20 04:20:23;;;;;;;25.97;10.47;;;;;;;;;;10427778;28;20025;-72
2022/02/20 04:25:24;;;;;;;22.23;10.65;;;;;;;;;;10427649;28;20385;-73
2022/02/20 04:30:24;;;;;;;31.63;13.13;;;;;;;;;;10411972;28;20104;-73
2022/02/20 04:35:24;;;;;;;22.42;10.85;;;;;;;;;;10462891;28;20289;-72
2022/02/20 04:40:25;;;;;;;23.90;11.15;;;;;;;;;;10451812;28;20021;-72
2022/02/20 04:45:25;;;;;;;24.30;12.07;;;;;;;;;;10452525;28;20037;-73
2022/02/20 04:50:25;;;;;;;26.50;13.13;;;;;;;;;;10451505;28;20070;-72
2022/02/20 04:55:25;;;;;;;32.63;14.87;;;;;;;;;;10451728;28;20564;-72
2022/02/20 05:00:26;;;;;;;31.52;14.52;;;;;;;;;;10450978;28;20450;-72
2022/02/20 05:05:26;;;;;;;34.47;15.33;;;;;;;;;;10450659;28;20543;-73
2022/02/20 05:10:26;;;;;;;42.75;19.10;;;;;;;;;;10450729;28;20039;-73
2022/02/20 05:15:27;;;;;;;42.08;18.52;;;;;;;;;;10451001;28;20386;-73
2022/02/20 05:20:27;;;;;;;34.83;17.53;;;;;;;;;;10450162;28;20021;-71
2022/02/20 05:25:27;;;;;;;46.40;18.37;;;;;;;;;;10450955;28;20454;-72
2022/02/20 05:30:28;;;;;;;44.50;18.73;;;;;;;;;;10446122;28;20647;-73
2022/02/20 05:35:28;;;;;;;42.95;19.05;;;;;;;;;;10409322;28;20406;-72
2022/02/20 05:40:28;;;;;;;43.97;19.02;;;;;;;;;;10426872;28;20028;-73
2022/02/20 05:45:29;;;;;;;43.70;19.67;;;;;;;;;;10441203;28;20100;-73
2022/02/20 05:50:30;;;;;;;39.20;18.50;;;;;;;;;;10411540;28;20328;-74
2022/02/20 05:55:30;;;;;;;46.05;17.83;;;;;;;;;;10436632;28;20025;-73
2022/02/20 06:00:30;;;;;;;36.03;18.02;;;;;;;;;;10423450;28;20409;-73
2022/02/20 06:05:30;;;;;;;31.33;17.08;;;;;;;;;;10425750;28;20025;-73
2022/02/20 06:10:31;;;;;;;33.60;17.45;;;;;;;;;;10449077;28;20029;-72
2022/02/20 06:15:31;;;;;;;36.47;15.27;;;;;;;;;;10447503;28;20021;-73
2022/02/20 06:20:31;;;;;;;28.33;14.60;;;;;;;;;;10448101;28;20028;-74
2022/02/20 06:25:32;;;;;;;32.63;14.15;;;;;;;;;;10447121;28;21027;-72
2022/02/20 06:30:32;;;;;;;27.95;12.20;;;;;;;;;;10446880;28;20318;-74
2022/02/20 06:35:33;;;;;;;26.67;13.27;;;;;;;;;;10432579;28;20037;-73
2022/02/20 06:40:33;;;;;;;24.52;10.48;;;;;;;;;;10406218;28;20124;-73
2022/02/20 06:45:33;;;;;;;22.63;10.25;;;;;;;;;;10406173;28;20090;-75
2022/02/20 06:50:33;;;;;;;23.17;9.07;;;;;;;;;;10388124;28;20064;-73
2022/02/20 06:55:34;;;;;;;25.58;12.15;;;;;;;;;;10404805;28;20396;-71
2022/02/20 07:00:34;;;;;;;32.53;11.77;;;;;;;;;;10404786;28;20425;-72
2022/02/20 07:05:34;;;;;;;34.10;13.23;;;;;;;;;;10405870;28;20476;-71
2022/02/20 07:10:35;;;;;;;28.25;11.60;;;;;;;;;;10420697;28;20020;-71
2022/02/20 07:15:35;;;;;;;24.95;10.80;;;;;;;;;;10421051;28;20493;-72
2022/02/20 07:20:35;;;;;;;29.83;11.07;;;;;;;;;;10436345;28;20485;-73
2022/02/20 07:25:36;;;;;;;30.17;11.95;;;;;;;;;;10444702;28;20013;-71
2022/02/20 07:30:36;;;;;;;26.73;10.55;;;;;;;;;;10430699;28;20099;-71
2022/02/20 07:35:36;;;;;;;26.40;11.37;;;;;;;;;;10419989;28;20421;-75
2022/02/20 07:40:37;;;;;;;19.08;10.25;;;;;;;;;;10419794;28;20496;-74
2022/02/20 07:45:37;;;;;;;23.38;9.80;;;;;;;;;;10404020;28;20481;-70
2022/02/20 07:50:38;;;;;;;25.20;10.18;;;;;;;;;;10409999;28;20021;-72
2022/02/20 07:55:38;;;;;;;22.17;9.82;;;;;;;;;;10411760;28;20035;-75
2022/02/20 08:00:39;;;;;;;29.93;13.83;;;;;;;;;;10412202;28;20341;-74
2022/02/20 08:05:39;;;;;;;40.10;15.50;;;;;;;;;;10440062;28;20030;-72
2022/02/20 08:10:39;;;;;;;37.10;16.92;;;;;;;;;;10436110;28;20018;-72
2022/02/20 08:15:40;;;;;;;33.97;16.10;;;;;;;;;;10445490;28;20532;-71
2022/02/20 08:20:41;;;;;;;44.47;16.90;;;;;;;;;;10427723;28;20115;-73
2022/02/20 08:25:41;;;;;;;33.33;17.23;;;;;;;;;;10411935;28;20079;-71
2022/02/20 08:30:42;;;;;;;42.73;19.13;;;;;;;;;;10417722;28;20025;-72
2022/02/20 08:35:42;;;;;;;35.83;19.67;;;;;;;;;;10435299;28;20080;-75
2022/02/20 08:40:43;;;;;;;35.92;17.23;;;;;;;;;;10444389;28;20041;-77
2022/02/20 08:45:46;;;;;;;35.85;17.05;;;;;;;;;;10408357;28;20025;-71
2022/02/20 08:50:46;;;;;;;47.70;18.98;;;;;;;;;;10393203;28;20448;-72
2022/02/20 08:55:46;;;;;;;43.00;21.73;;;;;;;;;;10465435;28;20047;-78
2022/02/20 09:00:47;;;;;;;44.15;18.67;;;;;;;;;;10448932;28;20020;-75
2022/02/20 09:05:47;;;;;;;41.17;18.63;;;;;;;;;;10448265;28;20076;-76
2022/02/20 09:10:48;;;;;;;44.17;18.65;;;;;;;;;;10408645;28;20013;-76
2022/02/20 09:15:48;;;;;;;33.08;17.65;;;;;;;;;;10408227;28;20421;-75
2022/02/20 09:20:48;;;;;;;48.37;22.17;;;;;;;;;;10439489;28;20038;-77
2022/02/20 09:25:50;;;;;;;50.25;26.15;;;;;;;;;;10423329;28;20029;-75
2022/02/20 09:30:51;;;;;;;52.65;22.60;;;;;;;;;;10406727;28;20025;-72
2022/02/20 09:35:51;;;;;;;44.60;20.50;;;;;;;;;;10408033;28;20057;-72
2022/02/20 09:40:51;;;;;;;42.57;19.53;;;;;;;;;;10411918;28;20029;-73
2022/02/20 09:45:52;;;;;;;41.33;19.17;;;;;;;;;;10448243;28;20562;-72
2022/02/20 09:50:52;;;;;;;41.45;19.13;;;;;;;;;;10449142;28;20017;-78
2022/02/20 09:55:53;;;;;;;36.70;17.60;;;;;;;;;;10427095;28;20117;-72
2022/02/20 10:00:54;;;;;;;39.90;18.00;;;;;;;;;;10423431;28;20051;-73
2022/02/20 10:05:54;;;;;;;44.67;19.73;;;;;;;;;;10446320;28;20215;-73
2022/02/20 10:11:11;;;;;;;42.40;19.63;;;;;;;;;;10445870;28;20480;-73
2022/02/20 10:16:22;;;;;;;37.55;19.00;;;;;;;;;;10429821;28;20540;-72
2022/02/20 10:21:26;;;;;;;50.78;16.08;;;;;;;;;;10406885;28;20405;-76
2022/02/20 10:26:27;;;;;;;36.42;15.35;;;;;;;;;;10404961;28;20029;-72
2022/02/20 10:31:41;;;;;;;30.08;14.07;;;;;;;;;;10403824;28;20473;-72
2022/02/20 10:36:44;;;;;;;34.80;14.80;;;;;;;;;;10420524;28;20140;-76
2022/02/20 10:41:45;;;;;;;25.75;14.15;;;;;;;;;;10404639;28;20017;-72
2022/02/20 10:46:46;;;;;;;27.85;13.95;;;;;;;;;;10404273;28;20021;-76
2022/02/20 10:51:46;;;;;;;21.40;12.68;;;;;;;;;;10403894;28;20017;-73
2022/02/20 10:56:47;;;;;;;19.70;10.45;;;;;;;;;;10403589;28;20096;-73
2022/02/20 11:01:49;;;;;;;23.17;11.73;;;;;;;;;;10403921;28;20104;-72
2022/02/20 11:06:49;;;;;;;24.80;13.70;;;;;;;;;;10403612;28;20025;-72
2022/02/20 11:11:50;;;;;;;30.53;14.43;;;;;;;;;;10420215;28;20517;-71
2022/02/20 11:16:51;;;;;;;34.80;14.57;;;;;;;;;;10403999;28;20018;-78
2022/02/20 11:21:53;;;;;;;35.63;15.43;;;;;;;;;;10403217;28;20648;-74
2022/02/20 11:26:53;;;;;;;35.97;16.13;;;;;;;;;;10419605;28;20041;-74
2022/02/20 11:31:54;;;;;;;30.98;15.98;;;;;;;;;;10406881;28;20025;-76
2022/02/20 11:36:56;;;;;;;34.55;15.25;;;;;;;;;;10402738;28;20039;-71
2022/02/20 11:42:10;;;;;;;39.85;17.77;;;;;;;;;;10403695;28;20018;-76
2022/02/20 11:47:30;;;;;;;31.17;14.85;;;;;;;;;;10402626;28;20075;-78
2022/02/20 11:52:48;;;;;;;21.65;11.60;;;;;;;;;;10402179;28;20029;-71
2022/02/20 11:57:48;;;;;;;24.08;11.13;;;;;;;;;;10402966;28;20030;-77
2022/02/20 12:03:03;;;;;;;24.30;11.33;;;;;;;;;;10402309;28;20512;-73
2022/02/20 12:08:04;;;;;;;20.52;10.70;;;;;;;;;;10403567;28;20025;-82
2022/02/20 12:13:07;;;;;;;19.50;10.45;;;;;;;;;;10419251;28;20021;-78
2022/02/20 12:18:11;;;;;;;26.52;11.50;;;;;;;;;;10417328;28;20040;-74
2022/02/20 12:23:11;;;;;;;29.75;10.35;;;;;;;;;;10417301;28;20504;-76
2022/02/20 12:28:13;;;;;;;27.50;11.88;;;;;;;;;;10427584;28;20115;-72
2022/02/20 12:33:28;;;;;;;23.92;10.45;;;;;;;;;;10426477;28;20041;-72
2022/02/20 12:38:28;;;;;;;22.05;10.20;;;;;;;;;;10449261;28;20036;-77
2022/02/20 12:43:28;;;;;;;30.43;11.10;;;;;;;;;;10450566;28;20503;-77
2022/02/20 12:48:28;;;;;;;22.80;11.15;;;;;;;;;;10449711;28;20020;-75
2022/02/20 12:53:29;;;;;;;19.20;9.30;;;;;;;;;;10446848;28;20544;-74
2022/02/20 12:58:29;;;;;;;22.63;9.95;;;;;;;;;;10433181;28;20017;-77
2022/02/20 13:03:30;;;;;;;22.92;10.57;;;;;;;;;;10448310;28;20386;-76
2022/02/20 13:08:32;;;;;;;18.40;8.98;;;;;;;;;;10448674;28;20017;-71
2022/02/20 13:13:33;;;;;;;22.33;8.43;;;;;;;;;;10423367;28;20017;-72
2022/02/20 13:18:35;;;;;;;14.55;7.38;;;;;;;;;;10434558;28;20020;-73
2022/02/20 13:23:39;;;;;;;18.15;7.25;;;;;;;;;;10448661;28;20025;-77
2022/02/20 13:28:41;;;;;;;16.50;6.13;;;;;;;;;;10449001;28;20025;-73
2022/02/20 13:33:46;;;;;;;20.17;7.60;;;;;;;;;;10445307;28;20107;-72
2022/02/20 13:38:49;;;;;;;15.30;6.38;;;;;;;;;;10447098;28;20079;-73
2022/02/20 13:43:50;;;;;;;20.95;6.65;;;;;;;;;;10448190;28;20112;-74
2022/02/20 13:48:50;;;;;;;16.65;7.10;;;;;;;;;;10445831;28;20451;-78
2022/02/20 13:54:02;;;;;;;19.65;7.68;;;;;;;;;;10445617;28;20017;-73
2022/02/20 13:59:04;;;;;;;15.95;6.22;;;;;;;;;;10445554;28;20484;-73
2022/02/20 14:04:16;;;;;;;12.88;6.07;;;;;;;;;;10445087;28;20021;-72
2022/02/20 14:09:16;;;;;;;13.88;6.25;;;;;;;;;;10446251;28;20017;-74
2022/02/20 14:14:17;;;;;;;11.80;5.60;;;;;;;;;;10433272;28;20075;-72
2022/02/20 14:19:18;;;;;;;14.52;5.45;;;;;;;;;;10439668;28;20123;-72
2022/02/20 14:24:18;;;;;;;8.45;4.50;;;;;;;;;;10444760;28;20382;-72
2022/02/20 14:29:22;;;;;;;11.83;4.50;;;;;;;;;;10445360;28;20013;-73
2022/02/20 14:34:22;;;;;;;13.30;4.88;;;;;;;;;;10422418;28;20053;-72
2022/02/20 14:39:23;;;;;;;7.63;3.85;;;;;;;;;;10387432;28;20377;-73
2022/02/20 14:44:23;;;;;;;9.98;3.95;;;;;;;;;;10403029;28;20030;-72
2022/02/20 14:49:24;;;;;;;7.25;3.80;;;;;;;;;;10403306;28;20118;-72
2022/02/20 14:54:24;;;;;;;6.20;4.10;;;;;;;;;;10402744;28;20026;-74
2022/02/20 14:59:29;;;;;;;17.20;6.38;;;;;;;;;;10413520;28;20028;-72
2022/02/20 15:04:29;;;;;;;9.93;4.60;;;;;;;;;;10444745;28;20112;-72
2022/02/20 15:09:29;;;;;;;16.27;4.88;;;;;;;;;;10445176;28;20477;-73
2022/02/20 15:14:30;;;;;;;10.45;4.80;;;;;;;;;;10443862;28;20526;-71
2022/02/20 15:19:30;;;;;;;8.88;4.80;;;;;;;;;;10421721;28;20083;-78
2022/02/20 15:24:30;;;;;;;9.75;4.68;;;;;;;;;;10413227;28;20505;-77
2022/02/20 15:29:31;;;;;;;8.52;4.30;;;;;;;;;;10438385;28;20344;-72
2022/02/20 15:34:31;;;;;;;14.18;4.78;;;;;;;;;;10425097;28;20425;-73
2022/02/20 15:39:32;;;;;;;14.67;4.27;;;;;;;;;;10403003;28;20037;-72
2022/02/20 15:44:32;;;;;;;16.70;5.03;;;;;;;;;;10434684;28;20028;-77
2022/02/20 15:49:32;;;;;;;10.10;4.77;;;;;;;;;;10425236;28;20412;-77
2022/02/20 15:54:33;;;;;;;12.93;5.83;;;;;;;;;;10418356;28;20315;-72
2022/02/20 15:59:36;;;;;;;13.02;5.28;;;;;;;;;;10402167;28;20017;-72
2022/02/20 16:04:37;;;;;;;11.80;4.60;;;;;;;;;;10401692;28;20025;-72
2022/02/20 16:09:37;;;;;;;13.07;5.63;;;;;;;;;;10420042;28;20444;-76
2022/02/20 16:14:39;;;;;;;8.18;4.78;;;;;;;;;;10421509;28;20021;-72
2022/02/20 16:19:40;;;;;;;10.80;6.35;;;;;;;;;;10425419;28;20047;-73
2022/02/20 16:24:40;;;;;;;14.32;6.97;;;;;;;;;;10438481;28;20032;-71
2022/02/20 16:29:40;;;;;;;12.45;7.40;;;;;;;;;;10428494;28;20105;-72
2022/02/20 16:34:41;;;;;;;13.50;7.35;;;;;;;;;;10408875;28;20494;-73
2022/02/20 16:39:41;;;;;;;25.47;8.57;;;;;;;;;;10409106;28;20052;-73
2022/02/20 16:44:41;;;;;;;17.23;8.27;;;;;;;;;;10407981;28;20021;-72
2022/02/20 16:49:42;;;;;;;13.98;8.00;;;;;;;;;;10424721;28;20017;-72
2022/02/20 16:54:46;;;;;;;20.52;6.90;;;;;;;;;;10409421;28;20025;-71
2022/02/20 16:59:46;;;;;;;29.50;9.23;;;;;;;;;;10391950;28;20036;-72
2022/02/20 17:04:46;;;;;;;17.00;7.13;;;;;;;;;;10425020;28;20377;-71
2022/02/20 17:09:47;;;;;;;21.17;7.67;;;;;;;;;;10439546;28;20017;-72
2022/02/20 17:14:48;;;;;;;14.02;7.50;;;;;;;;;;10448335;28;20086;-72
2022/02/20 17:19:49;;;;;;;16.52;6.80;;;;;;;;;;10448760;28;20087;-72
2022/02/20 17:24:50;;;;;;;16.15;7.53;;;;;;;;;;10449316;28;20059;-72
2022/02/20 17:29:56;;;;;;;15.70;7.35;;;;;;;;;;10426232;28;20104;-73
2022/02/20 17:34:58;;;;;;;19.77;8.27;;;;;;;;;;10406312;28;20054;-72
2022/02/20 17:39:58;;;;;;;25.00;9.77;;;;;;;;;;10408102;28;20032;-71
2022/02/20 17:44:59;;;;;;;15.43;8.87;;;;;;;;;;10430914;28;20561;-71
2022/02/20 17:49:59;;;;;;;19.70;8.38;;;;;;;;;;10438819;28;20264;-71
2022/02/20 17:54:59;;;;;;;16.00;8.43;;;;;;;;;;10446130;28;20021;-72
2022/02/20 18:00:00;;;;;;;14.95;7.07;;;;;;;;;;10447611;28;20017;-72
2022/02/20 18:05:00;;;;;;;19.42;7.55;;;;;;;;;;10446282;28;20028;-72
2022/02/20 18:10:00;;;;;;;23.20;8.17;;;;;;;;;;10446348;28;20036;-69
2022/02/20 18:15:00;;;;;;;14.00;7.18;;;;;;;;;;10426086;28;20024;-74
2022/02/20 18:20:02;;;;;;;17.25;9.65;;;;;;;;;;10443173;28;20798;-73
2022/02/20 18:25:03;;;;;;;21.63;9.65;;;;;;;;;;10445198;28;20033;-72
2022/02/20 18:30:04;;;;;;;17.75;9.93;;;;;;;;;;10421132;28;20021;-73
2022/02/20 18:35:04;;;;;;;22.45;9.07;;;;;;;;;;10403933;28;20042;-72
2022/02/20 18:40:05;;;;;;;16.92;8.75;;;;;;;;;;10403976;28;20029;-75
2022/02/20 18:45:06;;;;;;;14.88;8.73;;;;;;;;;;10404688;28;20021;-72
2022/02/20 18:50:06;;;;;;;22.23;9.10;;;;;;;;;;10434117;28;20116;-73
2022/02/20 18:55:07;;;;;;;20.65;9.88;;;;;;;;;;10444983;28;20259;-72
2022/02/20 19:00:09;;;;;;;15.82;8.45;;;;;;;;;;10446369;28;20021;-75
2022/02/20 19:05:09;;;;;;;16.88;8.70;;;;;;;;;;10444030;28;20046;-73
2022/02/20 19:10:09;;;;;;;16.63;7.77;;;;;;;;;;10443928;28;20553;-73
2022/02/20 19:15:14;;;;;;;16.17;7.20;;;;;;;;;;10443131;28;20062;-73
2022/02/20 19:20:14;;;;;;;15.40;7.65;;;;;;;;;;10444254;28;20820;-73
2022/02/20 19:25:15;;;;;;;16.10;8.80;;;;;;;;;;10442904;28;20425;-72
2022/02/20 19:30:15;;;;;;;19.02;9.05;;;;;;;;;;10418595;28;20021;-73
2022/02/20 19:35:15;;;;;;;20.55;9.98;;;;;;;;;;10402784;28;20057;-75
2022/02/20 19:40:16;;;;;;;23.87;10.83;;;;;;;;;;10402480;28;20028;-71
2022/02/20 19:45:16;;;;;;;19.15;9.65;;;;;;;;;;10432077;28;20555;-76
2022/02/20 19:50:17;;;;;;;23.80;9.17;;;;;;;;;;10451678;28;20013;-76
2022/02/20 19:55:19;;;;;;;17.75;9.75;;;;;;;;;;10451853;28;20017;-75
2022/02/20 20:00:20;;;;;;;51.63;23.80;;;;;;;;;;10450456;28;20028;-78
2022/02/20 20:05:21;;;;;;;17.38;9.38;;;;;;;;;;10412316;28;20025;-71
2022/02/20 20:10:22;;;;;;;18.75;8.25;;;;;;;;;;10409237;28;20426;-73
2022/02/20 20:15:24;;;;;;;17.07;9.00;;;;;;;;;;10426552;28;20493;-73
2022/02/20 20:20:24;;;;;;;26.33;10.18;;;;;;;;;;10411759;28;20021;-72
2022/02/20 20:25:25;;;;;;;20.10;9.35;;;;;;;;;;10409393;28;20022;-71
2022/02/20 20:30:26;;;;;;;22.63;9.95;;;;;;;;;;10401584;28;20017;-72
2022/02/20 20:35:26;;;;;;;16.63;10.65;;;;;;;;;;10452014;28;20513;-75
2022/02/20 20:40:28;;;;;;;22.33;11.85;;;;;;;;;;10441248;28;20033;-75
2022/02/20 20:45:28;;;;;;;21.65;11.35;;;;;;;;;;10409307;28;20033;-71
2022/02/20 20:50:29;;;;;;;29.03;12.07;;;;;;;;;;10408752;28;20442;-76
2022/02/20 20:55:29;;;;;;;21.85;14.27;;;;;;;;;;10407373;28;20027;-72
2022/02/20 21:00:30;;;;;;;26.07;13.83;;;;;;;;;;10425149;28;20032;-72
2022/02/20 21:05:30;;;;;;;25.92;13.98;;;;;;;;;;10418347;28;20132;-72
2022/02/20 21:10:30;;;;;;;18.30;10.63;;;;;;;;;;10408248;28;20121;-76
2022/02/20 21:15:30;;;;;;;19.77;10.37;;;;;;;;;;10408038;28;20022;-77
2022/02/20 21:20:31;;;;;;;19.27;10.90;;;;;;;;;;10408008;28;20091;-77
2022/02/20 21:25:31;;;;;;;19.83;11.60;;;;;;;;;;10407189;28;20291;-77
2022/02/20 21:30:31;;;;;;;23.05;11.27;;;;;;;;;;10410628;28;20025;-76
2022/02/20 21:35:32;;;;;;;20.57;10.90;;;;;;;;;;10407350;28;20060;-76
2022/02/20 21:40:33;;;;;;;22.43;11.83;;;;;;;;;;10423143;28;20056;-77
2022/02/20 21:45:33;;;;;;;27.55;12.60;;;;;;;;;;10406722;28;20025;-76
2022/02/20 21:50:33;;;;;;;26.05;14.25;;;;;;;;;;10407511;28;20017;-75
2022/02/20 21:55:35;;;;;;;29.92;12.45;;;;;;;;;;10406292;28;20018;-75
2022/02/20 22:00:36;;;;;;;21.23;12.88;;;;;;;;;;10406971;28;20021;-72
2022/02/20 22:05:36;;;;;;;25.00;13.20;;;;;;;;;;10414829;28;20017;-76
2022/02/20 22:10:36;;;;;;;26.17;12.70;;;;;;;;;;10409921;28;20022;-74
2022/02/20 22:15:37;;;;;;;19.35;9.77;;;;;;;;;;10406801;28;20485;-76
2022/02/20 22:20:37;;;;;;;16.10;9.80;;;;;;;;;;10405372;28;20021;-72
2022/02/20 22:25:37;;;;;;;20.17;9.27;;;;;;;;;;10388651;28;20025;-77
2022/02/20 22:30:38;;;;;;;13.87;8.37;;;;;;;;;;10409848;28;20022;-77
2022/02/20 22:35:38;;;;;;;13.20;7.95;;;;;;;;;;10404602;28;20132;-73
2022/02/20 22:40:40;;;;;;;12.02;7.00;;;;;;;;;;10404511;28;20029;-72
2022/02/20 22:45:40;;;;;;;19.60;7.32;;;;;;;;;;10406314;28;20083;-73
2022/02/20 22:50:40;;;;;;;13.33;6.33;;;;;;;;;;10404979;28;20378;-77
2022/02/20 22:55:40;;;;;;;14.33;6.23;;;;;;;;;;10405171;28;20477;-72
2022/02/20 23:00:41;;;;;;;7.22;5.05;;;;;;;;;;10405292;28;20394;-72
2022/02/20 23:05:41;;;;;;;16.48;6.72;;;;;;;;;;10421020;28;20026;-72
2022/02/20 23:10:42;;;;;;;16.42;6.57;;;;;;;;;;10404758;28;20505;-72
2022/02/20 23:15:43;;;;;;;14.32;6.35;;;;;;;;;;10406018;28;20059;-72
2022/02/20 23:20:43;;;;;;;9.30;5.40;;;;;;;;;;10420497;28;20076;-73
2022/02/20 23:25:44;;;;;;;11.20;6.13;;;;;;;;;;10404602;28;20025;-73
2022/02/20 23:30:45;;;;;;;12.98;6.18;;;;;;;;;;10406785;28;20017;-76
2022/02/20 23:35:45;;;;;;;12.93;6.23;;;;;;;;;;10404589;28;20049;-74
2022/02/20 23:40:45;;;;;;;8.10;5.97;;;;;;;;;;10421014;28;20026;-73
2022/02/20 23:45:46;;;;;;;12.98;6.53;;;;;;;;;;10404188;28;20272;-74
2022/02/20 23:50:46;;;;;;;9.13;5.45;;;;;;;;;;10404726;28;20064;-80
2022/02/20 23:55:48;;;;;;;8.65;4.55;;;;;;;;;;10405102;28;20021;-74
